Terminal Aerodrome Forecast
Issued by NWS Sioux Falls, SD

Home | Current Version | Previous Version | Text Only | Print | Product List | Glossary Off
Versions: 1 2 3 4 5 6 7 8 9 10 11 12 13 14 15 16 17 18 19 20

000
FTUS43 KFSD 202320
TAFSUX
TAF
KSUX 202320Z 2100/2124 16006KT P6SM SCT100
     FM210400 07008KT P6SM VCTS BKN050CB
     FM210800 08006KT P6SM -SHRA VCTS BKN080CB
     FM211200 09005KT 6SM BR BKN030
     FM211500 17007KT P6SM SCT080
     FM211900 19009KT P6SM VCTS BKN080CB
     FM212200 36008KT P6SM SHRA VCTS BKN060CB=

USA.gov is the U.S. government's official web portal to all federal, state and local government web resources and services.